Time;durP1;ratioP1;P1;durP2;ratioP2;P2;SDS_P1;SDS_P2;PMS_P1;PMS_P2;Temp;Humidity;BMP_temperature;BMP_pressure;BME280_temperature;BME280_humidity;BME280_pressure;Samples;Min_cycle;Max_cycle;Signal;HPM_P1;HPM_P2
2023/10/24 00:00:23;;;;;;;27.92;12.65;;;;;;;;;;8391630;28;20040;-92
2023/10/24 00:04:48;;;;;;;30.70;12.52;;;;;;;;;;8386946;28;20041;-91
2023/10/24 00:08:51;;;;;;;32.17;14.05;;;;;;;;;;8391521;28;20119;-91
2023/10/24 00:12:54;;;;;;;31.67;14.13;;;;;;;;;;8394061;28;20128;-91
2023/10/24 00:16:56;;;;;;;38.63;13.88;;;;;;;;;;8390064;28;20067;-91
2023/10/24 00:21:01;;;;;;;51.28;17.10;;;;;;;;;;8392828;28;20414;-91
2023/10/24 00:25:05;;;;;;;30.60;13.25;;;;;;;;;;8395507;28;20437;-91
2023/10/24 00:29:08;;;;;;;34.85;13.70;;;;;;;;;;8395333;28;20041;-92
2023/10/24 00:33:10;;;;;;;25.98;12.77;;;;;;;;;;8392392;28;20218;-90
2023/10/24 00:37:15;;;;;;;36.58;13.43;;;;;;;;;;8377606;28;20037;-92
2023/10/24 00:41:18;;;;;;;32.22;14.82;;;;;;;;;;8389914;28;20060;-92
2023/10/24 00:45:24;;;;;;;42.95;13.75;;;;;;;;;;8389581;28;20533;-92
2023/10/24 00:49:26;;;;;;;42.58;14.40;;;;;;;;;;8395381;28;20111;-91
2023/10/24 00:53:32;;;;;;;32.20;13.65;;;;;;;;;;8374505;28;20044;-92
2023/10/24 00:57:35;;;;;;;36.63;13.35;;;;;;;;;;8387507;28;20068;-92
2023/10/24 01:01:38;;;;;;;34.95;13.90;;;;;;;;;;8397345;28;20055;-91
2023/10/24 01:05:42;;;;;;;35.10;13.13;;;;;;;;;;8400634;28;20040;-90
2023/10/24 01:09:46;;;;;;;36.88;14.05;;;;;;;;;;8395324;28;20131;-90
2023/10/24 01:13:49;;;;;;;36.30;13.80;;;;;;;;;;8399376;28;20048;-91
2023/10/24 01:17:53;;;;;;;39.42;15.45;;;;;;;;;;8399815;28;20049;-90
2023/10/24 01:21:58;;;;;;;36.17;15.00;;;;;;;;;;8397581;28;20053;-91
2023/10/24 01:26:01;;;;;;;32.20;13.48;;;;;;;;;;8392659;28;20052;-91
2023/10/24 01:30:05;;;;;;;41.22;16.48;;;;;;;;;;8400553;28;20412;-90
2023/10/24 01:34:07;;;;;;;44.72;17.30;;;;;;;;;;8380326;28;20052;-90
2023/10/24 01:38:12;;;;;;;47.78;16.15;;;;;;;;;;8400132;28;20062;-90
2023/10/24 01:42:15;;;;;;;39.17;15.57;;;;;;;;;;8400158;28;20136;-91
2023/10/24 01:46:18;;;;;;;36.92;13.98;;;;;;;;;;8386936;28;20041;-91
2023/10/24 01:50:21;;;;;;;38.42;15.35;;;;;;;;;;8386998;28;20053;-91
2023/10/24 01:54:25;;;;;;;33.75;13.93;;;;;;;;;;8399748;28;20045;-90
2023/10/24 01:58:28;;;;;;;30.13;12.70;;;;;;;;;;8399553;28;20045;-90
2023/10/24 02:02:32;;;;;;;29.58;14.00;;;;;;;;;;8399503;28;20462;-92
2023/10/24 02:06:35;;;;;;;43.70;14.38;;;;;;;;;;8399422;28;20113;-90
2023/10/24 02:10:39;;;;;;;38.97;14.18;;;;;;;;;;8386123;28;20051;-91
2023/10/24 02:14:42;;;;;;;35.60;13.80;;;;;;;;;;8399295;28;20165;-91
2023/10/24 02:18:45;;;;;;;37.53;14.05;;;;;;;;;;8398724;28;20044;-90
2023/10/24 02:22:49;;;;;;;32.00;13.50;;;;;;;;;;8398666;28;20113;-90
2023/10/24 02:26:53;;;;;;;30.40;12.75;;;;;;;;;;8398523;28;20597;-90
2023/10/24 02:30:56;;;;;;;138.32;55.78;;;;;;;;;;8398472;28;20055;-89
2023/10/24 02:34:59;;;;;;;246.57;64.38;;;;;;;;;;8398427;28;20051;-91
2023/10/24 02:39:02;;;;;;;50.42;17.95;;;;;;;;;;8398183;28;20083;-89
2023/10/24 02:43:07;;;;;;;37.20;13.40;;;;;;;;;;8398096;28;20557;-91
2023/10/24 02:47:09;;;;;;;34.15;14.48;;;;;;;;;;8398259;28;20127;-92
2023/10/24 02:51:12;;;;;;;37.95;15.65;;;;;;;;;;8398108;28;20105;-90
2023/10/24 02:55:15;;;;;;;40.70;15.77;;;;;;;;;;8397910;28;20048;-92
2023/10/24 02:59:20;;;;;;;37.50;15.13;;;;;;;;;;8397694;28;20131;-91
2023/10/24 03:03:23;;;;;;;68.40;26.30;;;;;;;;;;8396753;28;20439;-89
2023/10/24 03:07:26;;;;;;;71.40;29.60;;;;;;;;;;8397438;28;20541;-90
2023/10/24 03:11:29;;;;;;;50.10;20.42;;;;;;;;;;8397345;28;20060;-90
2023/10/24 03:15:33;;;;;;;50.05;17.42;;;;;;;;;;8392450;28;20044;-90
2023/10/24 03:19:36;;;;;;;38.92;16.52;;;;;;;;;;8390190;28;20071;-90
2023/10/24 03:23:40;;;;;;;41.58;16.75;;;;;;;;;;8395870;28;20132;-91
2023/10/24 03:27:43;;;;;;;45.97;17.05;;;;;;;;;;8385600;28;20079;-92
2023/10/24 03:31:47;;;;;;;34.30;14.75;;;;;;;;;;8395767;28;20048;-90
2023/10/24 03:35:50;;;;;;;43.30;14.40;;;;;;;;;;8395018;28;20139;-90
2023/10/24 03:39:53;;;;;;;36.03;15.32;;;;;;;;;;8397001;28;20059;-91
2023/10/24 03:43:56;;;;;;;35.15;16.38;;;;;;;;;;8396386;28;20058;-91
2023/10/24 03:48:00;;;;;;;30.52;14.30;;;;;;;;;;8396433;28;20050;-90
2023/10/24 03:52:05;;;;;;;65.68;20.05;;;;;;;;;;8383093;28;20116;-89
2023/10/24 03:56:08;;;;;;;47.03;17.20;;;;;;;;;;8396801;28;20048;-89
2023/10/24 04:00:13;;;;;;;47.47;16.63;;;;;;;;;;8383350;28;20052;-92
2023/10/24 04:04:19;;;;;;;47.90;16.92;;;;;;;;;;8383355;28;20132;-90
2023/10/24 04:08:22;;;;;;;63.22;22.08;;;;;;;;;;8396061;28;20102;-91
2023/10/24 04:12:25;;;;;;;57.38;21.98;;;;;;;;;;8383142;28;20120;-91
2023/10/24 04:16:28;;;;;;;45.05;18.40;;;;;;;;;;8396344;28;20052;-90
2023/10/24 04:20:32;;;;;;;46.33;18.30;;;;;;;;;;8396203;28;20485;-91
2023/10/24 04:24:35;;;;;;;66.55;27.75;;;;;;;;;;8396106;28;20110;-91
2023/10/24 04:28:38;;;;;;;82.38;31.98;;;;;;;;;;8382815;28;20431;-91
2023/10/24 04:32:41;;;;;;;70.32;25.23;;;;;;;;;;8385645;28;20432;-92
2023/10/24 04:36:45;;;;;;;58.20;21.00;;;;;;;;;;8401602;28;20538;-90
2023/10/24 04:40:52;;;;;;;52.00;18.77;;;;;;;;;;8402265;28;20048;-91
2023/10/24 04:44:55;;;;;;;39.30;15.15;;;;;;;;;;8402788;28;20048;-91
2023/10/24 04:48:57;;;;;;;36.45;13.38;;;;;;;;;;8400997;28;20101;-91
2023/10/24 04:53:02;;;;;;;45.85;14.48;;;;;;;;;;8390531;28;20048;-91
2023/10/24 04:57:05;;;;;;;41.35;14.82;;;;;;;;;;8402125;28;20048;-91
2023/10/24 05:01:08;;;;;;;38.78;13.50;;;;;;;;;;8402156;28;20070;-91
2023/10/24 05:05:12;;;;;;;37.80;14.77;;;;;;;;;;8402014;28;20060;-90
2023/10/24 05:09:17;;;;;;;43.67;17.85;;;;;;;;;;8401975;28;20055;-88
2023/10/24 05:13:20;;;;;;;43.92;18.08;;;;;;;;;;8387385;28;20045;-92
2023/10/24 05:17:23;;;;;;;49.53;17.17;;;;;;;;;;8401505;28;20040;-92
2023/10/24 05:21:26;;;;;;;46.60;18.85;;;;;;;;;;8399832;28;20063;-91
2023/10/24 05:25:30;;;;;;;44.35;18.52;;;;;;;;;;8401006;28;20075;-90
2023/10/24 05:29:33;;;;;;;46.15;16.88;;;;;;;;;;8394083;28;20045;-91
2023/10/24 05:33:37;;;;;;;38.95;15.38;;;;;;;;;;8401298;28;20463;-90
2023/10/24 05:37:41;;;;;;;44.70;17.17;;;;;;;;;;8400902;28;20511;-91
2023/10/24 05:41:45;;;;;;;44.85;17.35;;;;;;;;;;8400850;28;20416;-91
2023/10/24 05:45:48;;;;;;;39.35;16.40;;;;;;;;;;8397220;28;20052;-89
2023/10/24 05:49:51;;;;;;;54.30;17.65;;;;;;;;;;8400385;28;20048;-91
2023/10/24 05:53:54;;;;;;;54.28;21.48;;;;;;;;;;8400290;28;20514;-89
2023/10/24 05:57:58;;;;;;;52.65;22.85;;;;;;;;;;8397580;28;20047;-93
2023/10/24 06:02:01;;;;;;;47.67;19.65;;;;;;;;;;8398112;28;20048;-91
2023/10/24 06:06:04;;;;;;;47.30;18.90;;;;;;;;;;8399521;28;20040;-90
2023/10/24 06:10:08;;;;;;;47.95;18.25;;;;;;;;;;8399492;28;20177;-89
2023/10/24 06:14:13;;;;;;;55.85;20.00;;;;;;;;;;8394951;28;20040;-92
2023/10/24 06:18:16;;;;;;;40.40;17.15;;;;;;;;;;8394902;28;20551;-89
2023/10/24 06:22:19;;;;;;;59.78;25.73;;;;;;;;;;8398995;28;20053;-92
2023/10/24 06:26:22;;;;;;;54.15;19.92;;;;;;;;;;8397720;28;20048;-89
2023/10/24 06:30:26;;;;;;;36.90;14.98;;;;;;;;;;8393360;28;20045;-92
2023/10/24 06:34:29;;;;;;;38.00;16.30;;;;;;;;;;8397606;28;20048;-92
2023/10/24 06:38:32;;;;;;;37.08;14.45;;;;;;;;;;8381649;28;20044;-92
2023/10/24 06:42:35;;;;;;;44.03;19.73;;;;;;;;;;8397773;28;20081;-92
2023/10/24 06:46:40;;;;;;;57.38;18.90;;;;;;;;;;8397500;28;20049;-92
2023/10/24 06:50:43;;;;;;;59.97;25.10;;;;;;;;;;8388248;28;20051;-91
2023/10/24 06:54:46;;;;;;;32.85;14.90;;;;;;;;;;8397630;28;20500;-93
2023/10/24 06:58:49;;;;;;;27.92;13.77;;;;;;;;;;8396531;28;20098;-93
2023/10/24 07:02:54;;;;;;;29.05;12.27;;;;;;;;;;8397497;28;20044;-92
2023/10/24 07:06:56;;;;;;;29.95;11.45;;;;;;;;;;8397082;28;20049;-90
2023/10/24 07:11:00;;;;;;;34.85;11.35;;;;;;;;;;8377037;28;20472;-94
2023/10/24 07:15:04;;;;;;;31.50;10.98;;;;;;;;;;8379568;28;20049;-93
2023/10/24 07:19:09;;;;;;;32.85;12.75;;;;;;;;;;8397000;28;20059;-91
2023/10/24 07:23:12;;;;;;;26.80;12.05;;;;;;;;;;8397074;28;20135;-90
2023/10/24 07:27:15;;;;;;;28.40;13.27;;;;;;;;;;8397124;28;20056;-92
2023/10/24 07:31:18;;;;;;;20.77;11.30;;;;;;;;;;8397735;28;20103;-92
2023/10/24 07:35:23;;;;;;;21.52;10.50;;;;;;;;;;8397964;28;20488;-93
2023/10/24 07:39:26;;;;;;;17.85;9.63;;;;;;;;;;8397406;28;20044;-92
2023/10/24 07:43:29;;;;;;;16.35;8.43;;;;;;;;;;8397311;28;20044;-91
2023/10/24 07:47:32;;;;;;;15.23;8.60;;;;;;;;;;8397034;28;20499;-92
2023/10/24 07:51:36;;;;;;;13.82;7.75;;;;;;;;;;8397227;28;20050;-92
2023/10/24 07:55:39;;;;;;;10.27;5.28;;;;;;;;;;8396810;28;20101;-93
2023/10/24 07:59:42;;;;;;;8.68;4.80;;;;;;;;;;8396835;28;20075;-90
2023/10/24 08:03:45;;;;;;;7.68;4.65;;;;;;;;;;8396903;28;20127;-91
2023/10/24 08:13:21;;;;;;;9.05;5.82;;;;;;;;;;8383613;28;20565;-92
2023/10/24 08:22:07;;;;;;;12.38;7.47;;;;;;;;;;8313951;28;20104;-92
2023/10/24 08:26:15;;;;;;;14.13;9.32;;;;;;;;;;8384758;28;20057;-93
2023/10/24 08:30:18;;;;;;;11.57;9.43;;;;;;;;;;8396591;28;20040;-91
2023/10/24 08:34:21;;;;;;;13.85;9.20;;;;;;;;;;8395273;28;20412;-92
2023/10/24 08:38:27;;;;;;;13.60;9.63;;;;;;;;;;8384440;28;20683;-92
2023/10/24 08:42:33;;;;;;;16.67;10.38;;;;;;;;;;8396058;28;20163;-93
2023/10/24 08:46:39;;;;;;;15.07;9.88;;;;;;;;;;8395423;28;20529;-92
2023/10/24 08:50:44;;;;;;;12.77;8.20;;;;;;;;;;8482505;22;20053;-92
2023/10/24 08:55:03;;;;;;;14.63;7.43;;;;;;;;;;8418313;22;20068;-92
2023/10/24 08:59:10;;;;;;;8.80;6.03;;;;;;;;;;8362935;28;20116;-90
2023/10/24 09:03:16;;;;;;;8.80;5.47;;;;;;;;;;8362885;28;20481;-91
2023/10/24 09:07:19;;;;;;;8.07;4.60;;;;;;;;;;8362746;28;20064;-92
2023/10/24 09:11:24;;;;;;;9.20;4.20;;;;;;;;;;8349820;28;20127;-92
2023/10/24 09:15:30;;;;;;;7.13;4.05;;;;;;;;;;8361882;28;20412;-91
2023/10/24 09:19:34;;;;;;;6.32;3.70;;;;;;;;;;8361438;28;20052;-92
2023/10/24 09:23:38;;;;;;;6.40;3.70;;;;;;;;;;8365640;28;20053;-91
2023/10/24 09:27:41;;;;;;;7.13;3.40;;;;;;;;;;8479727;22;20060;-91
2023/10/24 09:31:46;;;;;;;6.47;3.50;;;;;;;;;;8401540;28;20044;-91
2023/10/24 09:46:52;;;;;;;6.35;3.20;;;;;;;;;;8323514;28;20077;-91
2023/10/24 09:50:56;;;;;;;6.95;3.50;;;;;;;;;;8327959;28;20123;-93
2023/10/24 09:55:00;;;;;;;11.60;6.00;;;;;;;;;;8308037;28;20060;-91
2023/10/24 09:59:04;;;;;;;7.93;4.03;;;;;;;;;;8314728;28;20045;-93
2023/10/24 10:03:11;;;;;;;7.57;4.38;;;;;;;;;;8307239;28;20482;-92
2023/10/24 10:07:16;;;;;;;7.50;4.40;;;;;;;;;;8301761;28;20057;-93
2023/10/24 10:11:22;;;;;;;7.97;3.50;;;;;;;;;;8321831;28;20094;-92
2023/10/24 10:15:40;;;;;;;7.63;3.83;;;;;;;;;;8489003;22;20059;-92
2023/10/24 10:20:08;;;;;;;7.35;4.20;;;;;;;;;;8399705;28;20044;-92
2023/10/24 10:24:32;;;;;;;7.10;4.00;;;;;;;;;;8386719;28;20131;-91
2023/10/24 10:29:03;;;;;;;19.05;8.48;;;;;;;;;;8399674;28;20040;-91
2023/10/24 10:33:13;;;;;;;9.15;4.82;;;;;;;;;;8398545;28;20045;-91
2023/10/24 10:37:19;;;;;;;6.40;4.40;;;;;;;;;;8398485;28;20068;-90
2023/10/24 10:41:36;;;;;;;10.50;4.90;;;;;;;;;;8398807;28;20295;-92
2023/10/24 10:45:40;;;;;;;8.10;4.55;;;;;;;;;;8397391;28;20097;-91
2023/10/24 10:49:44;;;;;;;9.95;4.18;;;;;;;;;;8398698;28;20048;-89
2023/10/24 10:54:03;;;;;;;8.88;5.00;;;;;;;;;;8397733;28;20056;-92
2023/10/24 10:58:23;;;;;;;8.27;4.57;;;;;;;;;;8397890;28;20485;-92
2023/10/24 11:02:44;;;;;;;6.90;4.40;;;;;;;;;;8396797;28;20127;-92
2023/10/24 11:06:58;;;;;;;7.25;4.32;;;;;;;;;;8397103;28;20080;-92
2023/10/24 11:11:04;;;;;;;11.82;5.93;;;;;;;;;;8396120;28;20075;-91
2023/10/24 11:15:26;;;;;;;12.15;4.47;;;;;;;;;;8396796;28;20060;-91
2023/10/24 11:19:29;;;;;;;;;;;;;;;;;;8397959;28;20045;-92
2023/10/24 11:23:33;;;;;;;11.05;6.18;;;;;;;;;;8396543;28;19931;-91
2023/10/24 11:27:38;;;;;;;8.75;4.72;;;;;;;;;;8397442;28;20045;-88
2023/10/24 11:31:44;;;;;;;9.80;4.75;;;;;;;;;;8396605;28;20048;-90
2023/10/24 11:35:47;;;;;;;8.02;4.85;;;;;;;;;;8396522;28;20123;-89
2023/10/24 11:39:50;;;;;;;10.48;4.35;;;;;;;;;;8396861;28;20117;-91
2023/10/24 11:43:55;;;;;;;6.60;4.20;;;;;;;;;;8395667;28;20053;-91
2023/10/24 11:47:58;;;;;;;7.55;4.80;;;;;;;;;;8396400;28;20484;-91
2023/10/24 11:52:02;;;;;;;8.20;4.25;;;;;;;;;;8396073;28;20048;-91
2023/10/24 11:56:08;;;;;;;6.88;4.63;;;;;;;;;;8395668;28;20135;-91
2023/10/24 12:00:18;;;;;;;8.23;4.72;;;;;;;;;;8395717;28;20109;-92
2023/10/24 12:04:21;;;;;;;9.23;4.18;;;;;;;;;;8383071;28;20040;-91
2023/10/24 12:08:25;;;;;;;7.78;5.07;;;;;;;;;;8396014;28;20076;-91
2023/10/24 12:12:28;;;;;;;8.30;4.97;;;;;;;;;;8396354;28;20052;-91
2023/10/24 12:16:35;;;;;;;7.28;4.25;;;;;;;;;;8384322;28;20497;-90
2023/10/24 12:20:37;;;;;;;8.52;4.38;;;;;;;;;;8371897;28;20064;-90
2023/10/24 12:24:40;;;;;;;9.05;4.70;;;;;;;;;;8382594;28;20183;-90
2023/10/24 12:28:43;;;;;;;9.13;4.65;;;;;;;;;;8373985;28;20532;-90
2023/10/24 12:32:48;;;;;;;10.15;6.32;;;;;;;;;;8383390;28;20093;-90
2023/10/24 12:36:53;;;;;;;7.47;5.03;;;;;;;;;;8382130;28;20052;-91
2023/10/24 12:40:56;;;;;;;11.45;5.78;;;;;;;;;;8393409;28;20120;-91
2023/10/24 12:44:59;;;;;;;9.13;6.15;;;;;;;;;;8394775;28;20122;-90
2023/10/24 12:49:04;;;;;;;6.55;4.20;;;;;;;;;;8395330;28;20072;-91
2023/10/24 12:53:07;;;;;;;7.28;4.70;;;;;;;;;;8394873;28;20052;-90
2023/10/24 12:57:11;;;;;;;12.48;7.15;;;;;;;;;;8398594;28;20052;-91
2023/10/24 13:01:14;;;;;;;6.18;4.22;;;;;;;;;;8388065;28;20041;-92
2023/10/24 13:05:19;;;;;;;7.28;4.22;;;;;;;;;;8401455;28;20128;-90
2023/10/24 13:09:22;;;;;;;8.02;4.53;;;;;;;;;;8388086;28;20511;-92
2023/10/24 13:13:25;;;;;;;8.70;4.97;;;;;;;;;;8401283;28;20123;-90
2023/10/24 13:17:27;;;;;;;7.97;4.60;;;;;;;;;;8400196;28;20064;-91
2023/10/24 13:37:44;;;;;;;8.50;4.88;;;;;;;;;;8400773;28;20102;-91
2023/10/24 13:41:53;;;;;;;9.18;4.90;;;;;;;;;;8392972;28;20095;-92
2023/10/24 14:06:46;;;;;;;10.55;5.80;;;;;;;;;;8393829;28;20051;-91
2023/10/24 14:11:04;;;;;;;11.63;6.20;;;;;;;;;;8401184;28;20120;-92
2023/10/24 14:15:08;;;;;;;14.05;7.35;;;;;;;;;;8400364;28;20535;-92
2023/10/24 14:19:11;;;;;;;16.90;6.80;;;;;;;;;;8400922;28;20477;-92
2023/10/24 14:23:15;;;;;;;11.43;6.95;;;;;;;;;;8399458;28;20133;-90
2023/10/24 14:27:18;;;;;;;11.38;6.97;;;;;;;;;;8400407;28;20127;-91
2023/10/24 14:31:21;;;;;;;10.10;6.68;;;;;;;;;;8399899;28;20048;-92
2023/10/24 14:35:24;;;;;;;11.75;7.88;;;;;;;;;;8399882;28;20060;-91
2023/10/24 14:39:29;;;;;;;15.15;7.53;;;;;;;;;;8399634;28;20044;-90
2023/10/24 14:43:32;;;;;;;15.02;8.30;;;;;;;;;;8399721;28;20079;-91
2023/10/24 14:47:35;;;;;;;23.13;13.40;;;;;;;;;;8398715;28;20048;-90
2023/10/24 14:51:38;;;;;;;19.40;13.38;;;;;;;;;;8386326;28;20051;-90
2023/10/24 14:55:42;;;;;;;26.17;16.23;;;;;;;;;;8398636;28;20055;-92
2023/10/24 14:59:45;;;;;;;23.55;14.15;;;;;;;;;;8399191;28;20036;-91
2023/10/24 15:03:49;;;;;;;27.58;18.00;;;;;;;;;;8398545;28;20449;-90
2023/10/24 15:07:52;;;;;;;76.18;42.28;;;;;;;;;;8398893;28;20049;-92
2023/10/24 15:11:56;;;;;;;118.78;67.10;;;;;;;;;;8398220;28;20083;-91
2023/10/24 15:15:59;;;;;;;35.45;18.48;;;;;;;;;;8385284;28;20584;-91
2023/10/24 15:20:02;;;;;;;33.20;23.90;;;;;;;;;;8395652;28;20105;-90
2023/10/24 15:24:07;;;;;;;22.20;14.68;;;;;;;;;;8397163;28;20396;-90
2023/10/24 15:28:16;;;;;;;22.13;13.23;;;;;;;;;;8373767;28;20036;-90
2023/10/24 15:32:27;;;;;;;20.52;12.00;;;;;;;;;;8389689;28;20040;-93
2023/10/24 15:36:31;;;;;;;65.13;27.17;;;;;;;;;;8383096;28;20072;-92
2023/10/24 15:40:34;;;;;;;28.05;14.68;;;;;;;;;;8385412;28;20124;-91
2023/10/24 15:44:39;;;;;;;43.80;19.52;;;;;;;;;;8392195;28;20044;-91
2023/10/24 15:48:42;;;;;;;27.45;16.08;;;;;;;;;;8390336;28;20044;-90
2023/10/24 15:52:46;;;;;;;69.00;24.27;;;;;;;;;;8388136;28;20060;-90
2023/10/24 15:56:49;;;;;;;32.00;16.05;;;;;;;;;;8383198;28;20054;-91
2023/10/24 16:00:54;;;;;;;23.77;13.55;;;;;;;;;;8390666;28;20040;-91
2023/10/24 16:04:57;;;;;;;33.08;16.15;;;;;;;;;;8391791;28;20090;-90
2023/10/24 16:09:00;;;;;;;41.25;17.25;;;;;;;;;;8395374;28;20408;-91
2023/10/24 16:13:03;;;;;;;34.75;19.70;;;;;;;;;;8396157;28;20436;-91
2023/10/24 16:17:08;;;;;;;27.42;19.33;;;;;;;;;;8390872;28;20123;-91
2023/10/24 16:21:12;;;;;;;40.05;17.42;;;;;;;;;;8372912;28;20060;-92
2023/10/24 16:25:17;;;;;;;34.92;17.42;;;;;;;;;;8386787;28;20045;-92
2023/10/24 16:29:22;;;;;;;85.20;38.05;;;;;;;;;;8384177;28;20045;-92
2023/10/24 16:33:27;;;;;;;46.50;26.40;;;;;;;;;;8403819;28;20068;-93
2023/10/24 16:37:31;;;;;;;81.22;38.50;;;;;;;;;;8399242;28;20131;-93
2023/10/24 16:41:35;;;;;;;134.35;58.75;;;;;;;;;;8403626;28;20064;-91
2023/10/24 16:45:39;;;;;;;52.35;25.02;;;;;;;;;;8390897;28;20068;-92
2023/10/24 16:49:45;;;;;;;29.02;12.98;;;;;;;;;;8400891;28;20052;-92
2023/10/24 16:53:49;;;;;;;35.97;15.80;;;;;;;;;;8402907;28;20120;-91
2023/10/24 16:57:54;;;;;;;16.13;8.98;;;;;;;;;;8397132;28;20122;-92
2023/10/24 17:01:58;;;;;;;24.10;13.77;;;;;;;;;;8402122;28;20052;-93
2023/10/24 17:06:06;;;;;;;18.15;10.80;;;;;;;;;;8402636;28;20072;-91
2023/10/24 17:10:12;;;;;;;22.23;12.98;;;;;;;;;;8389114;28;20480;-92
2023/10/24 17:14:16;;;;;;;23.35;15.52;;;;;;;;;;8402095;28;20045;-91
2023/10/24 17:18:22;;;;;;;24.05;12.35;;;;;;;;;;8402207;28;20055;-92
2023/10/24 17:22:30;;;;;;;15.50;8.35;;;;;;;;;;8390580;28;20049;-92
2023/10/24 17:26:34;;;;;;;19.38;10.38;;;;;;;;;;8402057;28;20068;-91
2023/10/24 17:30:47;;;;;;;14.13;8.63;;;;;;;;;;8397143;28;20040;-92
2023/10/24 17:34:59;;;;;;;14.20;8.32;;;;;;;;;;8385962;28;20236;-92
2023/10/24 17:39:11;;;;;;;14.75;8.35;;;;;;;;;;8379811;28;20066;-91
2023/10/24 17:43:17;;;;;;;20.05;12.32;;;;;;;;;;8379085;28;20074;-90
2023/10/24 17:47:25;;;;;;;34.58;18.33;;;;;;;;;;8394201;28;20037;-93
2023/10/24 17:51:29;;;;;;;116.45;82.93;;;;;;;;;;8392502;28;20136;-91
2023/10/24 17:55:39;;;;;;;46.60;27.52;;;;;;;;;;8388555;28;20500;-92
2023/10/24 17:59:46;;;;;;;55.42;29.75;;;;;;;;;;8389285;28;20142;-92
2023/10/24 18:03:53;;;;;;;41.75;25.95;;;;;;;;;;8401241;28;20041;-92
2023/10/24 18:08:00;;;;;;;60.83;25.42;;;;;;;;;;8394961;28;20055;-91
2023/10/24 18:12:07;;;;;;;32.97;16.92;;;;;;;;;;8397980;28;20036;-91
2023/10/24 18:16:17;;;;;;;24.75;13.52;;;;;;;;;;8396973;28;20135;-90
2023/10/24 18:20:21;;;;;;;14.57;8.43;;;;;;;;;;8399366;28;20432;-89
2023/10/24 18:24:29;;;;;;;22.40;10.70;;;;;;;;;;8397152;28;20053;-92
2023/10/24 18:28:36;;;;;;;20.92;10.23;;;;;;;;;;8395612;28;20089;-90
2023/10/24 18:32:41;;;;;;;16.73;8.95;;;;;;;;;;8398817;28;20032;-90
2023/10/24 18:36:47;;;;;;;33.83;15.70;;;;;;;;;;8396775;28;20123;-91
2023/10/24 18:40:52;;;;;;;17.80;10.40;;;;;;;;;;8398529;28;20047;-91
2023/10/24 18:44:59;;;;;;;17.10;9.65;;;;;;;;;;8375035;28;20408;-90
2023/10/24 18:49:04;;;;;;;18.95;10.75;;;;;;;;;;8398442;28;20052;-92
2023/10/24 18:53:10;;;;;;;18.15;10.95;;;;;;;;;;8396851;28;20135;-91
2023/10/24 18:57:15;;;;;;;20.05;11.35;;;;;;;;;;8385376;28;20045;-92
2023/10/24 19:01:22;;;;;;;16.80;9.20;;;;;;;;;;8391534;28;20509;-91
2023/10/24 19:05:28;;;;;;;15.93;9.65;;;;;;;;;;8390980;28;20048;-91
2023/10/24 19:09:33;;;;;;;20.35;10.82;;;;;;;;;;8396714;28;20036;-90
2023/10/24 19:13:39;;;;;;;24.00;12.55;;;;;;;;;;8389963;28;20405;-92
2023/10/24 19:17:49;;;;;;;17.90;10.05;;;;;;;;;;8397513;28;20051;-92
2023/10/24 19:21:54;;;;;;;18.35;9.95;;;;;;;;;;8397175;28;20553;-91
2023/10/24 19:26:00;;;;;;;43.03;19.30;;;;;;;;;;8397572;28;20048;-91
2023/10/24 19:30:05;;;;;;;17.55;10.80;;;;;;;;;;8397424;28;20533;-91
2023/10/24 19:34:13;;;;;;;18.42;11.55;;;;;;;;;;8374315;28;20086;-91
2023/10/24 19:38:23;;;;;;;22.73;12.05;;;;;;;;;;8390932;28;20060;-91
2023/10/24 19:42:30;;;;;;;22.83;11.18;;;;;;;;;;8389227;28;20143;-93
2023/10/24 19:46:46;;;;;;;20.98;11.63;;;;;;;;;;8380969;28;20134;-92
2023/10/24 19:50:53;;;;;;;18.20;9.70;;;;;;;;;;8393322;28;20052;-90
2023/10/24 19:54:58;;;;;;;19.58;10.38;;;;;;;;;;8394326;28;20071;-91
2023/10/24 19:59:03;;;;;;;19.60;12.13;;;;;;;;;;8374696;28;20056;-92
2023/10/24 20:03:08;;;;;;;18.48;11.10;;;;;;;;;;8388195;28;20064;-91
2023/10/24 20:07:16;;;;;;;20.67;10.23;;;;;;;;;;8384057;28;20510;-88
2023/10/24 20:11:27;;;;;;;31.98;11.65;;;;;;;;;;8388789;28;20044;-91
2023/10/24 20:15:39;;;;;;;21.55;12.93;;;;;;;;;;8383255;28;20052;-92
2023/10/24 20:19:46;;;;;;;20.90;10.55;;;;;;;;;;8396186;28;20044;-92
2023/10/24 20:23:52;;;;;;;18.60;12.10;;;;;;;;;;8383840;28;20048;-91
2023/10/24 20:27:55;;;;;;;22.25;11.07;;;;;;;;;;8382830;28;20045;-92
2023/10/24 20:32:01;;;;;;;19.15;11.43;;;;;;;;;;8396508;28;20124;-91
2023/10/24 20:36:06;;;;;;;18.77;11.82;;;;;;;;;;8395988;28;20051;-92
2023/10/24 20:40:13;;;;;;;20.83;11.57;;;;;;;;;;8396410;28;20040;-91
2023/10/24 20:44:16;;;;;;;19.80;10.40;;;;;;;;;;8389461;28;20053;-91
2023/10/24 20:48:19;;;;;;;22.42;12.63;;;;;;;;;;8384317;28;20052;-91
2023/10/24 20:52:22;;;;;;;20.63;12.38;;;;;;;;;;8395485;28;20049;-91
2023/10/24 20:56:27;;;;;;;20.95;11.05;;;;;;;;;;8395630;28;20045;-91
2023/10/24 21:00:30;;;;;;;20.73;11.50;;;;;;;;;;8395577;28;20119;-92
2023/10/24 21:04:36;;;;;;;21.52;11.45;;;;;;;;;;8395848;28;20128;-91
2023/10/24 21:08:39;;;;;;;24.08;14.38;;;;;;;;;;8395699;28;20052;-90
2023/10/24 21:12:43;;;;;;;21.60;12.75;;;;;;;;;;8394989;28;20098;-90
2023/10/24 21:16:49;;;;;;;24.27;12.15;;;;;;;;;;8397253;28;20060;-91
2023/10/24 21:20:52;;;;;;;17.83;12.30;;;;;;;;;;8394673;28;20045;-91
2023/10/24 21:24:55;;;;;;;22.60;12.45;;;;;;;;;;8401150;28;20051;-91
2023/10/24 21:29:00;;;;;;;22.15;12.27;;;;;;;;;;8400804;28;20411;-91
2023/10/24 21:33:03;;;;;;;24.27;14.98;;;;;;;;;;8400772;28;20520;-91
2023/10/24 21:37:06;;;;;;;23.70;13.45;;;;;;;;;;8400912;28;20541;-91
2023/10/24 21:41:09;;;;;;;22.77;13.00;;;;;;;;;;8400656;28;20052;-91
2023/10/24 21:45:15;;;;;;;25.85;13.40;;;;;;;;;;8400658;28;20381;-91
2023/10/24 21:49:18;;;;;;;23.98;12.80;;;;;;;;;;8401020;28;20045;-90
2023/10/24 21:53:20;;;;;;;20.05;12.60;;;;;;;;;;8399976;28;20143;-91
2023/10/24 21:57:23;;;;;;;20.88;13.43;;;;;;;;;;8389691;28;20241;-91
2023/10/24 22:01:28;;;;;;;19.77;12.23;;;;;;;;;;8400706;28;20041;-91
2023/10/24 22:05:31;;;;;;;23.15;13.90;;;;;;;;;;8387328;28;20484;-91
2023/10/24 22:09:34;;;;;;;24.15;13.68;;;;;;;;;;8400245;28;20044;-91
2023/10/24 22:13:37;;;;;;;25.52;13.40;;;;;;;;;;8399911;28;20049;-91
2023/10/24 22:17:42;;;;;;;27.33;14.88;;;;;;;;;;8390276;28;20523;-91
2023/10/24 22:21:46;;;;;;;28.35;15.07;;;;;;;;;;8396282;28;20047;-91
2023/10/24 22:25:49;;;;;;;27.85;14.93;;;;;;;;;;8399927;28;20131;-91
2023/10/24 22:29:52;;;;;;;25.80;15.10;;;;;;;;;;8399129;28;20594;-91
2023/10/24 22:33:56;;;;;;;29.13;16.50;;;;;;;;;;8399656;28;20489;-91
2023/10/24 22:37:59;;;;;;;23.88;14.82;;;;;;;;;;8399335;28;20127;-91
2023/10/24 22:42:02;;;;;;;29.27;17.33;;;;;;;;;;8398940;28;20048;-91
2023/10/24 22:46:05;;;;;;;28.38;17.35;;;;;;;;;;8398161;28;20520;-90
2023/10/24 22:50:11;;;;;;;34.35;17.40;;;;;;;;;;8399098;28;20045;-91
2023/10/24 22:54:13;;;;;;;35.08;18.60;;;;;;;;;;8399555;28;20382;-92
2023/10/24 22:58:17;;;;;;;31.38;18.35;;;;;;;;;;8398306;28;20043;-91
2023/10/24 23:02:20;;;;;;;30.77;18.88;;;;;;;;;;8399136;28;20131;-91
2023/10/24 23:06:24;;;;;;;34.53;18.98;;;;;;;;;;8398614;28;20075;-92
2023/10/24 23:10:30;;;;;;;33.13;18.20;;;;;;;;;;8385279;28;20049;-92
2023/10/24 23:14:35;;;;;;;36.65;19.40;;;;;;;;;;8398458;28;20044;-92
2023/10/24 23:18:40;;;;;;;32.35;19.55;;;;;;;;;;8385256;28;20056;-91
2023/10/24 23:22:44;;;;;;;37.13;18.15;;;;;;;;;;8399149;28;20040;-93
2023/10/24 23:26:48;;;;;;;35.20;20.48;;;;;;;;;;8397151;28;20044;-92
2023/10/24 23:30:53;;;;;;;30.05;18.77;;;;;;;;;;8397496;28;20052;-92
2023/10/24 23:34:56;;;;;;;29.92;17.40;;;;;;;;;;8397493;28;20446;-92
2023/10/24 23:39:01;;;;;;;32.15;18.45;;;;;;;;;;8396880;28;20139;-91
2023/10/24 23:43:03;;;;;;;33.88;20.05;;;;;;;;;;8396831;28;20053;-92
2023/10/24 23:47:07;;;;;;;39.05;20.70;;;;;;;;;;8397347;28;20048;-92
2023/10/24 23:51:10;;;;;;;36.17;21.40;;;;;;;;;;8397711;28;20113;-92
2023/10/24 23:55:14;;;;;;;35.80;21.35;;;;;;;;;;8397698;28;20048;-91
2023/10/24 23:59:17;;;;;;;34.65;19.83;;;;;;;;;;8380074;28;20120;-90
